Time;durP1;ratioP1;P1;durP2;ratioP2;P2;SDS_P1;SDS_P2;PMS_P1;PMS_P2;Temp;Humidity;BMP_temperature;BMP_pressure;BME280_temperature;BME280_humidity;BME280_pressure;Samples;Min_cycle;Max_cycle;Signal;HPM_P1;HPM_P2
2021/09/17 00:00:06;;;;;;;26.67;19.93;;;;;;;12.94;91.28;101605.91;2089847;28;20082;-64
2021/09/17 00:01:07;;;;;;;26.33;20.50;;;;;;;12.95;91.23;101618.06;2080990;28;20076;-64
2021/09/17 00:02:07;;;;;;;26.27;20.88;;;;;;;12.93;90.90;101609.44;2081061;28;20111;-64
2021/09/17 00:03:07;;;;;;;27.33;20.37;;;;;;;12.93;90.94;101610.28;2089756;28;20036;-63
2021/09/17 00:04:08;;;;;;;29.30;19.33;;;;;;;12.94;90.93;101606.75;2089869;28;20033;-64
2021/09/17 00:05:09;;;;;;;30.37;21.60;;;;;;;12.95;91.26;101612.84;2089767;28;20036;-63
2021/09/17 00:06:09;;;;;;;25.17;20.50;;;;;;;12.97;90.91;101617.09;2089844;28;20028;-63
2021/09/17 00:07:09;;;;;;;27.50;21.17;;;;;;;12.98;90.85;101608.34;2089881;28;20377;-63
2021/09/17 00:08:09;;;;;;;27.17;21.73;;;;;;;12.99;90.37;101617.03;2089848;28;20029;-64
2021/09/17 00:09:10;;;;;;;26.93;20.60;;;;;;;12.99;91.01;101604.78;2080893;28;20196;-64
2021/09/17 00:10:12;;;;;;;25.30;21.25;;;;;;;12.98;91.02;101612.72;2081044;28;20057;-63
2021/09/17 00:11:12;;;;;;;28.83;19.95;;;;;;;12.95;90.80;101616.31;2089788;28;20032;-64
2021/09/17 00:12:13;;;;;;;28.13;20.93;;;;;;;12.94;91.33;101608.50;2091043;28;20382;-64
2021/09/17 00:13:13;;;;;;;30.20;23.50;;;;;;;12.94;91.16;101614.63;2091392;28;20047;-64
2021/09/17 00:14:13;;;;;;;27.30;21.40;;;;;;;12.93;91.12;101606.81;2091347;28;20311;-64
2021/09/17 00:15:14;;;;;;;29.73;22.27;;;;;;;12.93;91.13;101612.88;2082438;28;20049;-63
2021/09/17 00:16:15;;;;;;;25.98;21.60;;;;;;;12.93;90.96;101612.06;2082703;28;20022;-64
2021/09/17 00:17:15;;;;;;;29.55;22.05;;;;;;;12.94;90.94;101611.13;2082385;28;20124;-63
2021/09/17 00:18:15;;;;;;;29.10;22.30;;;;;;;12.91;91.25;101612.13;2082549;28;20030;-64
2021/09/17 00:19:16;;;;;;;29.93;20.60;;;;;;;12.91;91.43;101613.88;2091379;28;20059;-63
2021/09/17 00:20:16;;;;;;;32.97;23.37;;;;;;;12.88;91.42;101597.38;2091187;28;20017;-64
2021/09/17 00:21:16;;;;;;;28.53;21.43;;;;;;;12.90;91.27;101606.94;2091344;28;20478;-64
2021/09/17 00:22:16;;;;;;;27.80;22.93;;;;;;;12.90;91.87;101606.94;2091381;28;20424;-63
2021/09/17 00:23:17;;;;;;;30.27;23.07;;;;;;;12.88;91.75;101605.25;2091224;28;20043;-63
2021/09/17 00:24:17;;;;;;;32.22;23.88;;;;;;;12.87;91.88;101606.13;2091325;28;20474;-63
2021/09/17 00:25:18;;;;;;;30.73;23.27;;;;;;;12.87;91.64;101606.13;2082368;28;20040;-63
2021/09/17 00:26:18;;;;;;;29.30;22.77;;;;;;;12.89;91.48;101598.22;2074291;28;20105;-64
2021/09/17 00:27:18;;;;;;;31.13;23.70;;;;;;;12.88;91.06;101607.84;2082452;28;20029;-63
2021/09/17 00:28:19;;;;;;;29.60;22.07;;;;;;;12.88;91.74;101597.38;2091233;28;20055;-64
2021/09/17 00:29:19;;;;;;;31.05;23.25;;;;;;;12.88;91.55;101607.84;2091240;28;20543;-63
2021/09/17 00:30:19;;;;;;;29.70;23.17;;;;;;;12.90;92.09;101604.31;2082301;28;20116;-63
2021/09/17 00:31:20;;;;;;;29.70;22.77;;;;;;;12.88;92.46;101600.00;2082447;28;20159;-63
2021/09/17 00:32:20;;;;;;;29.97;21.87;;;;;;;12.85;92.68;101607.97;2091236;28;20020;-63
2021/09/17 00:33:20;;;;;;;23.77;21.00;;;;;;;12.83;93.06;101601.09;2091242;28;20075;-63
2021/09/17 00:34:21;;;;;;;26.80;21.30;;;;;;;12.81;93.42;101603.78;2082305;28;20165;-63
2021/09/17 00:35:21;;;;;;;26.47;21.37;;;;;;;12.80;93.19;101604.66;2082363;28;20108;-64
2021/09/17 00:36:21;;;;;;;29.33;21.90;;;;;;;12.78;93.72;101601.28;2091150;28;20066;-63
2021/09/17 00:37:21;;;;;;;26.83;20.90;;;;;;;12.78;93.71;101606.50;2091225;28;20103;-63
2021/09/17 00:38:22;;;;;;;25.63;20.87;;;;;;;12.78;93.44;101589.94;2091267;28;20036;-63
2021/09/17 00:39:22;;;;;;;26.10;19.92;;;;;;;12.80;93.97;101598.59;2091190;28;20435;-64
2021/09/17 00:40:23;;;;;;;29.27;20.70;;;;;;;12.78;94.12;101601.28;2082349;28;20080;-64
2021/09/17 00:41:23;;;;;;;27.27;20.77;;;;;;;12.80;93.96;101595.97;2082384;28;20112;-64
2021/09/17 00:42:23;;;;;;;27.87;20.57;;;;;;;12.77;93.77;101594.34;2091211;28;20035;-63
2021/09/17 00:43:24;;;;;;;28.53;22.60;;;;;;;12.75;94.09;101596.16;2091174;28;20029;-63
2021/09/17 00:44:26;;;;;;;30.37;22.17;;;;;;;12.72;93.99;101596.25;2091156;28;20028;-63
2021/09/17 00:45:26;;;;;;;28.20;21.10;;;;;;;12.71;94.28;101598.03;2091112;28;20021;-64
2021/09/17 00:46:27;;;;;;;27.70;21.10;;;;;;;12.69;94.26;101589.38;2091211;28;20021;-65
2021/09/17 00:47:27;;;;;;;29.20;22.03;;;;;;;12.69;94.32;101588.56;2091129;28;20099;-64
2021/09/17 00:48:27;;;;;;;28.50;21.17;;;;;;;12.69;94.35;101586.75;2091105;28;20040;-64
2021/09/17 00:49:28;;;;;;;28.90;21.63;;;;;;;12.69;94.35;101584.16;2091167;28;20021;-64
2021/09/17 00:50:28;;;;;;;28.53;22.27;;;;;;;12.69;94.62;101580.69;2091191;28;20409;-63
2021/09/17 00:51:28;;;;;;;27.00;21.53;;;;;;;12.70;94.77;101588.47;2091117;28;20462;-64
2021/09/17 00:52:29;;;;;;;28.43;23.07;;;;;;;12.70;94.51;101582.38;2091131;28;20021;-64
2021/09/17 00:53:33;;;;;;;25.93;21.80;;;;;;;12.70;94.25;101587.63;2082094;28;20276;-64
2021/09/17 00:54:34;;;;;;;29.65;22.90;;;;;;;12.71;94.65;101589.31;2082734;28;20113;-63
2021/09/17 00:55:34;;;;;;;31.15;24.05;;;;;;;12.72;94.15;101577.94;2091088;28;20024;-63
2021/09/17 00:56:36;;;;;;;31.80;22.70;;;;;;;12.74;94.69;101583.97;2091100;28;20463;-63
2021/09/17 00:57:36;;;;;;;27.23;21.33;;;;;;;12.75;94.04;101580.44;2091098;28;20283;-63
2021/09/17 00:58:36;;;;;;;30.43;23.70;;;;;;;12.77;93.93;101586.47;2091051;28;20100;-64
2021/09/17 00:59:37;;;;;;;30.47;22.93;;;;;;;12.80;93.89;101583.72;2091080;28;20020;-63
2021/09/17 01:00:37;;;;;;;30.70;23.15;;;;;;;12.80;93.67;101586.31;2091042;28;20021;-63
2021/09/17 01:01:39;;;;;;;27.77;21.42;;;;;;;12.80;93.79;101583.72;2091035;28;20553;-63
2021/09/17 01:02:40;;;;;;;;;;;;;;;12.81;93.55;101585.44;2091420;28;20064;-63
2021/09/17 01:03:40;;;;;;;27.25;21.58;;;;;;;12.82;93.19;101588.88;2090957;28;19916;-63
2021/09/17 01:04:41;;;;;;;30.30;22.43;;;;;;;12.83;93.38;101594.06;2091013;28;20102;-64
2021/09/17 01:05:41;;;;;;;28.73;22.95;;;;;;;12.85;93.12;101591.41;2081996;28;20022;-64
2021/09/17 01:06:43;;;;;;;28.57;23.73;;;;;;;12.86;93.46;101593.94;2082186;28;20068;-64
2021/09/17 01:07:44;;;;;;;;;;;;;;;12.90;93.39;101594.66;2091418;28;20016;-63
2021/09/17 01:08:45;;;;;;;28.23;22.48;;;;;;;12.91;93.54;101590.28;2090828;28;19959;-64
2021/09/17 01:09:45;;;;;;;32.03;23.67;;;;;;;12.91;93.25;101590.28;2091001;28;20063;-63
2021/09/17 01:10:46;;;;;;;30.92;22.85;;;;;;;12.93;93.11;101593.72;2090943;28;20543;-63
2021/09/17 01:11:46;;;;;;;32.22;24.92;;;;;;;12.94;92.88;101590.19;2090978;28;20032;-63
2021/09/17 01:12:47;;;;;;;30.37;23.87;;;;;;;12.93;92.87;101583.25;2090952;28;20059;-64
2021/09/17 01:13:48;;;;;;;31.65;23.70;;;;;;;12.94;92.95;101583.19;2090936;28;20029;-63
2021/09/17 01:14:50;;;;;;;34.78;24.65;;;;;;;12.98;92.89;101586.50;2090964;28;20029;-64
2021/09/17 01:15:50;;;;;;;34.00;25.42;;;;;;;12.99;93.00;101580.34;2090841;28;20120;-64
2021/09/17 01:16:50;;;;;;;31.87;24.57;;;;;;;13.01;92.70;101586.41;2081979;28;20506;-64
2021/09/17 01:17:51;;;;;;;34.17;26.23;;;;;;;13.01;92.83;101586.41;2082020;28;20060;-63
2021/09/17 01:18:52;;;;;;;33.23;23.83;;;;;;;13.05;92.53;101584.50;2090786;28;20027;-64
2021/09/17 01:19:52;;;;;;;36.22;25.50;;;;;;;13.06;91.92;101584.44;2081931;28;20120;-63
2021/09/17 01:21:03;;;;;;;33.87;24.37;;;;;;;13.12;91.78;101589.44;2081960;28;20053;-63
2021/09/17 01:22:06;;;;;;;36.17;25.42;;;;;;;13.14;91.78;101582.34;2090846;28;20029;-64
2021/09/17 01:23:07;;;;;;;37.08;27.10;;;;;;;13.13;91.73;101585.88;2090580;28;20028;-64
2021/09/17 01:24:07;;;;;;;35.40;25.70;;;;;;;13.14;91.40;101586.75;2090917;28;20029;-64
2021/09/17 01:25:10;;;;;;;36.17;26.67;;;;;;;13.13;91.79;101585.88;2090911;28;20052;-63
2021/09/17 01:26:11;;;;;;;35.15;25.80;;;;;;;13.13;91.58;101580.66;2090885;28;20021;-63
2021/09/17 01:27:12;;;;;;;34.53;26.37;;;;;;;13.13;91.34;101580.66;2090900;28;20032;-63
2021/09/17 01:28:12;;;;;;;35.42;25.95;;;;;;;13.14;91.22;101584.97;2090861;28;20048;-63
2021/09/17 01:29:12;;;;;;;34.83;26.07;;;;;;;13.16;91.68;101584.91;2090886;28;20139;-63
2021/09/17 01:30:15;;;;;;;36.83;26.57;;;;;;;13.18;91.57;101576.97;2090703;28;20025;-64
2021/09/17 01:31:15;;;;;;;34.22;25.33;;;;;;;13.20;91.52;101577.75;2090738;28;20021;-64
2021/09/17 01:32:16;;;;;;;32.07;25.70;;;;;;;13.21;90.98;101574.25;2090986;28;20025;-63
2021/09/17 01:33:16;;;;;;;34.28;26.67;;;;;;;13.21;90.93;101576.84;2090771;28;20033;-63
2021/09/17 01:34:19;;;;;;;33.83;25.42;;;;;;;13.23;91.13;101575.00;2090857;28;20052;-64
2021/09/17 01:35:22;;;;;;;33.40;25.50;;;;;;;13.23;91.21;101570.63;2090682;28;20029;-62
2021/09/17 01:36:22;;;;;;;33.33;25.33;;;;;;;13.22;91.44;101568.06;2090763;28;20029;-63
2021/09/17 01:37:22;;;;;;;30.53;23.90;;;;;;;13.22;91.53;101565.44;2090707;28;20028;-62
2021/09/17 01:38:28;;;;;;;33.43;24.33;;;;;;;13.21;91.64;101563.75;2090728;28;20039;-63
2021/09/17 01:39:28;;;;;;;33.80;24.48;;;;;;;13.20;91.56;101565.50;2090741;28;20032;-64
2021/09/17 01:40:28;;;;;;;35.60;26.40;;;;;;;13.21;91.64;101566.38;2090738;28;20039;-64
2021/09/17 01:41:29;;;;;;;37.57;26.73;;;;;;;13.22;91.93;101565.44;2081854;28;20073;-64
2021/09/17 01:42:29;;;;;;;30.63;24.33;;;;;;;13.21;91.60;101561.13;2081865;28;20450;-64
2021/09/17 01:43:30;;;;;;;31.27;22.93;;;;;;;13.19;91.79;101563.81;2090631;28;20071;-63
2021/09/17 01:44:36;;;;;;;35.08;23.67;;;;;;;13.20;92.11;101569.88;2090722;28;20028;-63
2021/09/17 01:45:36;;;;;;;33.20;24.83;;;;;;;13.20;92.26;101564.66;2090723;28;20024;-64
2021/09/17 01:46:37;;;;;;;32.70;24.07;;;;;;;13.20;92.74;101567.28;2081818;28;20021;-63
2021/09/17 01:47:38;;;;;;;31.15;24.30;;;;;;;13.20;92.93;101564.66;2081903;28;20025;-63
2021/09/17 01:48:39;;;;;;;30.52;23.45;;;;;;;13.21;92.82;101569.00;2090657;28;20561;-63
2021/09/17 01:49:39;;;;;;;32.60;24.93;;;;;;;13.21;92.94;101566.38;2090754;28;20021;-64
2021/09/17 01:50:39;;;;;;;29.63;24.03;;;;;;;13.20;92.39;101562.88;2090675;28;20432;-64
2021/09/17 01:51:40;;;;;;;32.33;24.60;;;;;;;13.21;92.35;101563.75;2090646;28;20032;-64
2021/09/17 01:52:41;;;;;;;29.47;23.13;;;;;;;13.22;92.72;101563.69;2090705;28;20029;-63
2021/09/17 01:53:41;;;;;;;32.50;23.90;;;;;;;13.25;93.15;101562.72;2090651;28;20385;-64
2021/09/17 01:54:42;;;;;;;32.93;24.27;;;;;;;13.24;92.70;101558.38;2090546;28;20424;-63
2021/09/17 01:55:42;;;;;;;29.25;23.33;;;;;;;13.22;92.81;101561.06;2090624;28;20095;-62
2021/09/17 01:56:42;;;;;;;29.37;22.13;;;;;;;13.23;92.94;101552.28;2090624;28;20052;-63
2021/09/17 01:57:42;;;;;;;31.50;23.97;;;;;;;13.25;92.57;101558.28;2090597;28;20025;-63
2021/09/17 01:58:43;;;;;;;32.90;24.50;;;;;;;13.26;92.25;101553.91;2090583;28;20047;-63
2021/09/17 01:59:43;;;;;;;37.00;23.93;;;;;;;13.27;92.17;101550.38;2090621;28;20029;-64
2021/09/17 02:00:43;;;;;;;31.63;24.67;;;;;;;13.29;91.88;101553.78;2090673;28;20522;-64
2021/09/17 02:01:43;;;;;;;28.93;22.87;;;;;;;13.31;92.00;101551.09;2090635;28;20052;-64
2021/09/17 02:02:44;;;;;;;33.67;24.07;;;;;;;13.32;92.27;101552.81;2090545;28;20021;-64
2021/09/17 02:03:45;;;;;;;30.03;23.97;;;;;;;13.31;91.89;101551.94;2081592;28;20025;-62
2021/09/17 02:04:45;;;;;;;28.80;23.30;;;;;;;13.32;92.45;101543.19;2081684;28;20477;-63
2021/09/17 02:05:45;;;;;;;30.60;24.00;;;;;;;13.33;93.22;101554.50;2081617;28;20025;-63
2021/09/17 02:06:46;;;;;;;30.10;22.63;;;;;;;13.33;93.79;101547.50;2081596;28;20398;-63
2021/09/17 02:07:46;;;;;;;26.33;21.13;;;;;;;13.32;93.59;101558.03;2090493;28;20040;-64
2021/09/17 02:08:47;;;;;;;31.53;23.13;;;;;;;13.31;93.92;101546.69;2090505;28;20547;-64
2021/09/17 02:09:47;;;;;;;31.95;23.85;;;;;;;13.30;93.54;101549.38;2090565;28;20556;-63
2021/09/17 02:10:48;;;;;;;33.87;24.97;;;;;;;13.28;92.83;101549.47;2090473;28;20047;-63
2021/09/17 02:11:49;;;;;;;;;;;;;;;13.32;93.03;101543.19;2090907;28;20031;-63
2021/09/17 02:12:49;;;;;;;32.90;23.23;;;;;;;13.32;92.54;101544.94;2090504;28;19915;-63
2021/09/17 02:13:49;;;;;;;33.13;24.87;;;;;;;13.32;92.01;101543.19;2090512;28;20079;-63
2021/09/17 02:14:50;;;;;;;33.08;25.10;;;;;;;13.34;91.63;101543.94;2090454;28;20056;-63
2021/09/17 02:15:51;;;;;;;29.97;23.83;;;;;;;13.35;91.66;101545.66;2081632;28;20025;-62
2021/09/17 02:16:52;;;;;;;28.85;21.95;;;;;;;13.38;92.55;101544.69;2081639;28;20116;-63
2021/09/17 02:17:52;;;;;;;33.10;24.10;;;;;;;13.38;92.24;101540.28;2090488;28;20032;-64
2021/09/17 02:18:52;;;;;;;28.23;22.80;;;;;;;13.40;92.24;101540.22;2090377;28;20071;-64
2021/09/17 02:19:53;;;;;;;28.97;22.77;;;;;;;13.43;92.34;101542.72;2090424;28;20025;-63
2021/09/17 02:20:53;;;;;;;31.40;21.92;;;;;;;13.43;92.18;101537.47;2090268;28;20102;-64
2021/09/17 02:21:55;;;;;;;31.73;23.50;;;;;;;13.46;92.08;101539.97;2090474;28;20039;-65
2021/09/17 02:22:55;;;;;;;30.08;24.42;;;;;;;13.49;92.03;101539.00;2090334;28;20112;-63
2021/09/17 02:23:56;;;;;;;27.37;22.83;;;;;;;13.52;91.76;101536.25;2081557;28;20036;-64
2021/09/17 02:24:58;;;;;;;32.13;23.27;;;;;;;13.51;92.32;101542.41;2081525;28;20116;-63
2021/09/17 02:25:58;;;;;;;29.08;22.35;;;;;;;13.50;92.71;101538.94;2090330;28;20055;-64
2021/09/17 02:26:58;;;;;;;26.37;21.63;;;;;;;13.49;92.79;101533.75;2090402;28;20029;-63
2021/09/17 02:27:58;;;;;;;29.10;23.00;;;;;;;13.46;92.85;101533.84;2081472;28;20021;-64
2021/09/17 02:28:59;;;;;;;30.23;22.90;;;;;;;13.44;93.28;101530.47;2073293;28;20029;-64
2021/09/17 02:29:59;;;;;;;29.65;23.83;;;;;;;13.38;93.71;101531.59;2081412;28;20073;-63
2021/09/17 02:31:00;;;;;;;30.17;23.40;;;;;;;13.33;93.25;101528.28;2090480;28;20112;-64
2021/09/17 02:32:00;;;;;;;29.13;23.77;;;;;;;13.31;93.35;101530.13;2090271;28;20028;-64
2021/09/17 02:33:00;;;;;;;31.60;23.53;;;;;;;13.30;93.35;101531.03;2081405;28;20029;-62
2021/09/17 02:34:00;;;;;;;27.73;21.20;;;;;;;13.29;92.95;101527.59;2081346;28;20096;-64
2021/09/17 02:35:01;;;;;;;30.40;22.70;;;;;;;13.28;93.24;101525.88;2089769;28;20043;-63
2021/09/17 02:36:02;;;;;;;30.05;23.33;;;;;;;13.28;93.54;101531.13;2090371;28;20098;-63
2021/09/17 02:37:03;;;;;;;33.63;23.05;;;;;;;13.30;93.31;101526.66;2090265;28;20024;-63
2021/09/17 02:38:04;;;;;;;33.88;23.83;;;;;;;13.29;93.48;101524.09;2090320;28;20048;-62
2021/09/17 02:39:04;;;;;;;33.53;24.15;;;;;;;13.28;93.26;101525.88;2090251;28;20039;-64
2021/09/17 02:40:06;;;;;;;31.27;23.57;;;;;;;13.28;93.29;101520.66;2090252;28;20427;-63
2021/09/17 02:41:06;;;;;;;30.38;23.08;;;;;;;13.27;93.25;101522.41;2090309;28;20025;-63
2021/09/17 02:42:08;;;;;;;30.77;24.20;;;;;;;13.30;93.11;101520.56;2090257;28;20108;-64
2021/09/17 02:43:08;;;;;;;30.00;23.58;;;;;;;13.30;93.37;101524.03;2090069;28;20052;-63
2021/09/17 02:44:09;;;;;;;30.13;22.23;;;;;;;13.30;93.53;101518.78;2090227;28;20047;-63
2021/09/17 02:45:11;;;;;;;30.73;23.63;;;;;;;13.29;93.34;101519.72;2090220;28;20048;-62
2021/09/17 02:46:11;;;;;;;29.80;22.92;;;;;;;13.28;93.66;101518.03;2090185;28;20075;-64
2021/09/17 02:47:11;;;;;;;31.57;24.73;;;;;;;13.28;93.32;101520.66;2090276;28;20024;-63
2021/09/17 02:48:12;;;;;;;28.87;22.10;;;;;;;13.29;93.84;101524.09;2090203;28;20063;-63
2021/09/17 02:49:12;;;;;;;32.47;24.30;;;;;;;13.27;93.25;101518.91;2090217;28;20039;-63
2021/09/17 02:50:13;;;;;;;31.63;23.23;;;;;;;13.26;93.47;101514.59;2090209;28;20025;-62
2021/09/17 02:51:13;;;;;;;34.05;23.98;;;;;;;13.24;93.21;101514.66;2090223;28;20052;-63
2021/09/17 02:52:14;;;;;;;32.90;23.23;;;;;;;13.25;93.47;101516.34;2090203;28;20115;-64
2021/09/17 02:53:14;;;;;;;29.30;23.17;;;;;;;13.26;93.26;101518.09;2081326;28;20100;-63
2021/09/17 02:54:14;;;;;;;32.23;23.40;;;;;;;13.26;93.30;101514.59;2073135;28;20053;-63
2021/09/17 02:55:15;;;;;;;33.53;23.87;;;;;;;13.26;93.44;101517.22;2081257;28;20029;-63
2021/09/17 02:56:15;;;;;;;30.10;22.40;;;;;;;13.26;93.33;101515.47;2090130;28;20112;-64
2021/09/17 02:57:15;;;;;;;30.53;24.00;;;;;;;13.26;93.46;101507.59;2090175;28;20032;-63
2021/09/17 02:58:15;;;;;;;29.80;22.83;;;;;;;13.28;93.60;101510.16;2090183;28;20064;-63
2021/09/17 02:59:16;;;;;;;29.70;22.90;;;;;;;13.29;93.90;101511.00;2090157;28;20024;-64
2021/09/17 03:00:18;;;;;;;29.00;23.23;;;;;;;13.29;93.93;101506.63;2090075;28;20021;-64
2021/09/17 03:01:18;;;;;;;30.15;22.13;;;;;;;13.29;93.74;101505.75;2090059;28;20017;-63
2021/09/17 03:02:18;;;;;;;30.93;23.63;;;;;;;13.31;93.86;101510.00;2081193;28;20026;-63
2021/09/17 03:03:19;;;;;;;29.33;22.10;;;;;;;13.31;93.55;101512.63;2081169;28;20045;-63
2021/09/17 03:04:19;;;;;;;31.47;22.90;;;;;;;13.33;93.12;101512.56;2089496;28;20029;-64
2021/09/17 03:05:19;;;;;;;29.97;24.07;;;;;;;13.33;92.63;101508.19;2090089;28;20482;-65
2021/09/17 03:06:22;;;;;;;32.83;24.33;;;;;;;13.36;92.03;101508.06;2090124;28;20033;-63
2021/09/17 03:07:22;;;;;;;31.67;23.05;;;;;;;13.37;91.94;101504.50;2090121;28;20035;-64
2021/09/17 03:08:23;;;;;;;33.77;24.20;;;;;;;13.39;91.84;101502.66;2090212;28;20485;-64
2021/09/17 03:09:23;;;;;;;32.23;24.57;;;;;;;13.37;92.02;101496.63;2081213;28;20035;-63
2021/09/17 03:10:23;;;;;;;37.05;24.33;;;;;;;13.36;91.50;101497.56;2081286;28;20033;-63
2021/09/17 03:11:24;;;;;;;31.27;23.93;;;;;;;13.35;91.14;101495.84;2090121;28;20025;-64
2021/09/17 03:12:24;;;;;;;30.73;25.23;;;;;;;13.35;90.98;101490.59;2081198;28;20029;-63
2021/09/17 03:13:25;;;;;;;30.90;23.20;;;;;;;13.36;91.14;101492.31;2081274;28;20386;-63
2021/09/17 03:14:25;;;;;;;;;;;;;;;13.38;91.30;101492.25;2081686;28;20103;-65
2021/09/17 03:15:27;;;;;;;31.45;23.48;;;;;;;13.36;90.97;101492.31;2081233;28;19913;-63
2021/09/17 03:16:27;;;;;;;31.23;23.35;;;;;;;13.36;91.09;101494.94;2081184;28;20433;-64
2021/09/17 03:17:27;;;;;;;33.00;23.97;;;;;;;13.36;90.56;101492.31;2081277;28;20029;-64
2021/09/17 03:18:28;;;;;;;29.37;22.70;;;;;;;13.38;91.22;101485.22;2090107;28;20033;-64
2021/09/17 03:19:28;;;;;;;32.17;23.77;;;;;;;13.38;92.07;101490.47;2090010;28;20393;-64
2021/09/17 03:20:28;;;;;;;28.60;21.50;;;;;;;13.39;92.61;101486.91;2089886;28;20279;-64
2021/09/17 03:21:28;;;;;;;30.75;23.88;;;;;;;13.38;92.24;101487.03;2081125;28;20032;-64
2021/09/17 03:22:29;;;;;;;30.27;22.57;;;;;;;13.37;93.11;101483.53;2081224;28;20029;-64
2021/09/17 03:23:29;;;;;;;31.67;22.77;;;;;;;13.33;92.86;101487.22;2089915;28;20064;-64
2021/09/17 03:24:29;;;;;;;34.87;24.17;;;;;;;13.33;93.25;101484.59;2089960;28;20020;-64
2021/09/17 03:25:30;;;;;;;32.23;21.63;;;;;;;13.32;93.41;101485.50;2090018;28;20382;-63
2021/09/17 03:26:30;;;;;;;28.40;22.10;;;;;;;13.30;93.47;101482.09;2090122;28;20028;-64
2021/09/17 03:27:30;;;;;;;30.57;23.63;;;;;;;13.30;94.08;101484.72;2089989;28;20028;-64
2021/09/17 03:28:31;;;;;;;29.37;23.27;;;;;;;13.30;94.08;101479.47;2081167;28;20430;-64
2021/09/17 03:29:31;;;;;;;24.00;18.80;;;;;;;13.30;93.99;101482.09;2081187;28;20041;-64
2021/09/17 03:30:32;;;;;;;30.63;20.80;;;;;;;13.29;94.03;101480.41;2089362;28;20431;-64
2021/09/17 03:31:32;;;;;;;29.33;22.27;;;;;;;13.26;94.15;101476.16;2089306;28;20362;-63
2021/09/17 03:32:32;;;;;;;29.73;22.20;;;;;;;13.27;94.18;101482.22;2081093;28;20371;-65
2021/09/17 03:33:32;;;;;;;27.53;22.37;;;;;;;13.25;94.17;101486.69;2081226;28;20863;-63
2021/09/17 03:34:33;;;;;;;32.33;22.47;;;;;;;13.24;94.37;101482.38;2089976;28;20055;-63
2021/09/17 03:35:33;;;;;;;29.07;23.07;;;;;;;13.24;94.18;101485.00;2089994;28;20048;-64
2021/09/17 03:36:41;;;;;;;29.97;21.80;;;;;;;13.23;94.30;101483.28;2090020;28;20078;-63
2021/09/17 03:37:42;;;;;;;33.55;22.67;;;;;;;13.19;94.62;101482.56;2089956;28;20028;-64
2021/09/17 03:38:42;;;;;;;29.90;23.13;;;;;;;13.17;94.41;101481.78;2090057;28;20039;-64
2021/09/17 03:39:43;;;;;;;30.53;23.17;;;;;;;13.14;94.63;101488.00;2089949;28;20029;-63
2021/09/17 03:40:43;;;;;;;27.60;22.70;;;;;;;13.13;94.52;101483.69;2081040;28;20025;-63
2021/09/17 03:41:45;;;;;;;33.27;22.73;;;;;;;13.12;94.69;101481.13;2081236;28;20423;-63
2021/09/17 03:42:45;;;;;;;27.05;21.20;;;;;;;13.14;94.80;101482.75;2089921;28;20037;-63
2021/09/17 03:43:46;;;;;;;28.03;22.90;;;;;;;13.16;94.21;101479.22;2089874;28;20048;-64
2021/09/17 03:44:46;;;;;;;31.95;24.27;;;;;;;13.19;94.35;101489.56;2089974;28;20024;-64
2021/09/17 03:45:46;;;;;;;29.40;21.43;;;;;;;13.20;93.76;101480.78;2090630;28;20039;-64
2021/09/17 03:46:47;;;;;;;29.40;21.03;;;;;;;13.22;93.93;101477.19;2091626;28;20110;-63
2021/09/17 03:47:47;;;;;;;30.60;22.77;;;;;;;13.22;93.34;101474.59;2091654;28;20053;-64
2021/09/17 03:48:47;;;;;;;30.07;23.10;;;;;;;13.25;93.58;101473.59;2091602;28;20998;-63
2021/09/17 03:49:48;;;;;;;29.73;23.17;;;;;;;13.25;94.16;101474.41;2091633;28;20036;-63
2021/09/17 03:50:48;;;;;;;28.13;22.60;;;;;;;13.23;93.58;101473.66;2091618;28;20029;-63
2021/09/17 03:51:48;;;;;;;31.43;25.07;;;;;;;13.22;94.21;101474.59;2091561;28;20375;-65
2021/09/17 03:52:48;;;;;;;30.77;22.33;;;;;;;13.22;94.10;101471.09;2082703;28;20540;-63
2021/09/17 03:53:49;;;;;;;31.10;22.13;;;;;;;13.22;94.03;101471.09;2082834;28;20087;-63
2021/09/17 03:54:49;;;;;;;27.13;20.30;;;;;;;13.21;93.72;101479.88;2091552;28;20036;-64
2021/09/17 03:55:49;;;;;;;35.40;22.23;;;;;;;13.19;93.65;101471.22;2091451;28;20498;-62
2021/09/17 03:56:50;;;;;;;29.57;20.63;;;;;;;13.21;93.63;101470.25;2091784;28;20298;-62
2021/09/17 03:57:50;;;;;;;29.10;22.57;;;;;;;13.24;94.20;101471.91;2091485;28;20061;-63
2021/09/17 03:58:50;;;;;;;28.53;21.07;;;;;;;13.24;94.16;101472.72;2091613;28;20051;-62
2021/09/17 03:59:51;;;;;;;30.17;21.73;;;;;;;13.25;94.11;101466.56;2091492;28;20021;-63
2021/09/17 04:00:52;;;;;;;25.40;19.40;;;;;;;13.25;94.24;101468.34;2091574;28;20470;-62
2021/09/17 04:01:52;;;;;;;28.97;21.37;;;;;;;13.25;93.29;101466.56;2091593;28;20024;-63
2021/09/17 04:02:52;;;;;;;26.63;20.77;;;;;;;13.27;92.66;101466.50;2091577;28;20037;-64
2021/09/17 04:03:52;;;;;;;28.73;21.37;;;;;;;13.31;92.92;101464.59;2091450;28;20041;-63
2021/09/17 04:04:53;;;;;;;29.27;22.53;;;;;;;13.32;91.86;101461.06;2091451;28;20025;-62
2021/09/17 04:05:53;;;;;;;30.63;20.97;;;;;;;13.33;91.48;101466.25;2091519;28;20036;-63
2021/09/17 04:06:53;;;;;;;29.03;20.87;;;;;;;13.33;91.73;101466.25;2082584;28;20087;-64
2021/09/17 04:07:53;;;;;;;27.77;21.43;;;;;;;13.36;91.35;101466.13;2082644;28;20029;-63
2021/09/17 04:08:54;;;;;;;29.67;21.17;;;;;;;13.38;91.85;101464.25;2091475;28;20086;-63
2021/09/17 04:09:54;;;;;;;24.20;19.57;;;;;;;13.39;91.80;101455.47;2091444;28;20029;-65
2021/09/17 04:10:54;;;;;;;26.60;20.23;;;;;;;13.41;91.51;101462.44;2091484;28;20100;-62
2021/09/17 04:11:55;;;;;;;28.97;21.53;;;;;;;13.42;91.40;101459.75;2082532;28;20026;-64
2021/09/17 04:12:55;;;;;;;26.23;21.60;;;;;;;13.42;91.07;101464.13;2074377;28;20030;-63
2021/09/17 04:13:55;;;;;;;28.90;20.33;;;;;;;13.44;91.42;101457.06;2082531;28;20410;-63
2021/09/17 04:14:55;;;;;;;27.93;19.97;;;;;;;13.42;91.55;101453.63;2090710;28;20032;-63
2021/09/17 04:15:55;;;;;;;29.93;21.93;;;;;;;13.44;91.71;101459.69;2090861;28;20108;-64
2021/09/17 04:16:56;;;;;;;27.83;20.63;;;;;;;13.44;91.52;101462.31;2091467;28;20041;-63
2021/09/17 04:17:56;;;;;;;28.07;22.00;;;;;;;13.43;90.46;101466.69;2091463;28;20028;-63
2021/09/17 04:18:56;;;;;;;27.43;21.17;;;;;;;13.46;90.12;101460.44;2091410;28;20028;-63
2021/09/17 04:19:57;;;;;;;31.53;21.53;;;;;;;13.47;89.80;101460.38;2091316;28;20017;-63
2021/09/17 04:20:57;;;;;;;29.90;22.40;;;;;;;13.47;89.25;101456.91;2091225;28;20049;-64
2021/09/17 04:21:58;;;;;;;28.27;21.67;;;;;;;13.49;89.53;101461.19;2091343;28;20048;-65
2021/09/17 04:22:58;;;;;;;30.05;21.73;;;;;;;13.51;89.24;101458.50;2091290;28;20043;-64
2021/09/17 04:23:59;;;;;;;26.53;20.87;;;;;;;13.51;89.16;101459.34;2091341;28;20106;-64
2021/09/17 04:24:59;;;;;;;28.90;21.58;;;;;;;13.54;89.86;101460.16;2091310;28;20470;-63
2021/09/17 04:25:59;;;;;;;30.83;23.07;;;;;;;13.53;89.24;101456.66;2091340;28;20385;-64
2021/09/17 04:26:59;;;;;;;32.97;23.27;;;;;;;13.52;89.25;101454.97;2091297;28;20036;-64
2021/09/17 04:28:00;;;;;;;30.03;23.13;;;;;;;13.52;89.05;101457.59;2091384;28;20066;-63
2021/09/17 04:29:00;;;;;;;34.50;24.17;;;;;;;13.54;88.92;101460.97;2091266;28;20504;-63
2021/09/17 04:30:03;;;;;;;33.50;23.63;;;;;;;13.52;89.21;101461.03;2091392;28;20024;-63
2021/09/17 04:31:03;;;;;;;33.80;22.70;;;;;;;13.52;89.06;101460.22;2091251;28;20025;-63
2021/09/17 04:32:04;;;;;;;30.83;23.63;;;;;;;13.52;89.24;101465.47;2091309;28;20033;-63
2021/09/17 04:33:04;;;;;;;32.60;23.63;;;;;;;13.52;89.23;101460.22;2091261;28;20086;-63
2021/09/17 04:34:04;;;;;;;36.00;23.93;;;;;;;13.52;89.25;101465.47;2091332;28;20029;-63
2021/09/17 04:35:05;;;;;;;35.73;25.43;;;;;;;13.51;89.43;101458.50;2091250;28;20497;-64